sensor_id;sensor_type;location;lat;lon;timestamp;temperature;humidity
10692;DHT22;5396;50.950;6.988;2023-08-06T00:00:05;15.00;99.90
10692;DHT22;5396;50.950;6.988;2023-08-06T00:02:30;15.00;99.90
10692;DHT22;5396;50.950;6.988;2023-08-06T00:04:56;15.00;99.90
10692;DHT22;5396;50.950;6.988;2023-08-06T00:07:22;14.90;99.90
10692;DHT22;5396;50.950;6.988;2023-08-06T00:09:47;14.90;99.90
10692;DHT22;5396;50.950;6.988;2023-08-06T00:12:13;14.80;99.90
10692;DHT22;5396;50.950;6.988;2023-08-06T00:14:39;14.80;99.90
10692;DHT22;5396;50.950;6.988;2023-08-06T00:17:04;14.70;99.90
10692;DHT22;5396;50.950;6.988;2023-08-06T00:19:31;14.60;99.90
10692;DHT22;5396;50.950;6.988;2023-08-06T00:21:57;14.60;99.90
10692;DHT22;5396;50.950;6.988;2023-08-06T00:24:22;14.60;99.90
10692;DHT22;5396;50.950;6.988;2023-08-06T00:26:48;14.60;99.90
10692;DHT22;5396;50.950;6.988;2023-08-06T00:29:13;14.50;99.90
10692;DHT22;5396;50.950;6.988;2023-08-06T00:31:39;14.50;99.90
10692;DHT22;5396;50.950;6.988;2023-08-06T00:34:04;14.50;99.90
10692;DHT22;5396;50.950;6.988;2023-08-06T00:36:30;14.40;99.90
10692;DHT22;5396;50.950;6.988;2023-08-06T00:38:55;14.40;99.90
10692;DHT22;5396;50.950;6.988;2023-08-06T00:41:21;14.40;99.90
10692;DHT22;5396;50.950;6.988;2023-08-06T00:43:47;14.40;99.90
10692;DHT22;5396;50.950;6.988;2023-08-06T00:46:13;14.40;99.90
10692;DHT22;5396;50.950;6.988;2023-08-06T00:48:40;14.30;99.90
10692;DHT22;5396;50.950;6.988;2023-08-06T00:51:06;14.30;99.90
10692;DHT22;5396;50.950;6.988;2023-08-06T00:53:31;14.30;99.90
10692;DHT22;5396;50.950;6.988;2023-08-06T00:55:58;14.40;99.90
10692;DHT22;5396;50.950;6.988;2023-08-06T00:58:24;14.40;99.90
10692;DHT22;5396;50.950;6.988;2023-08-06T01:00:50;14.40;99.90
10692;DHT22;5396;50.950;6.988;2023-08-06T01:03:15;14.40;99.90
10692;DHT22;5396;50.950;6.988;2023-08-06T01:05:41;14.50;99.90
10692;DHT22;5396;50.950;6.988;2023-08-06T01:08:23;14.50;99.90
10692;DHT22;5396;50.950;6.988;2023-08-06T01:13:43;14.60;99.90
10692;DHT22;5396;50.950;6.988;2023-08-06T01:16:15;14.60;99.90
10692;DHT22;5396;50.950;6.988;2023-08-06T01:18:41;14.60;99.90
10692;DHT22;5396;50.950;6.988;2023-08-06T01:21:08;14.60;99.90
10692;DHT22;5396;50.950;6.988;2023-08-06T01:23:34;14.70;99.90
10692;DHT22;5396;50.950;6.988;2023-08-06T01:28:43;14.70;99.90
10692;DHT22;5396;50.950;6.988;2023-08-06T01:31:17;14.70;99.90
10692;DHT22;5396;50.950;6.988;2023-08-06T01:33:45;14.70;99.90
10692;DHT22;5396;50.950;6.988;2023-08-06T01:36:15;14.70;99.90
10692;DHT22;5396;50.950;6.988;2023-08-06T01:38:42;14.80;99.90
10692;DHT22;5396;50.950;6.988;2023-08-06T01:41:07;14.80;99.90
10692;DHT22;5396;50.950;6.988;2023-08-06T01:43:33;14.80;99.90
10692;DHT22;5396;50.950;6.988;2023-08-06T01:45:58;14.80;99.90
10692;DHT22;5396;50.950;6.988;2023-08-06T01:48:24;14.80;99.90
10692;DHT22;5396;50.950;6.988;2023-08-06T01:50:49;14.80;99.90
10692;DHT22;5396;50.950;6.988;2023-08-06T01:53:15;14.70;99.90
10692;DHT22;5396;50.950;6.988;2023-08-06T01:55:40;14.70;99.90
10692;DHT22;5396;50.950;6.988;2023-08-06T01:58:06;14.70;99.90
10692;DHT22;5396;50.950;6.988;2023-08-06T02:00:31;14.70;99.90
10692;DHT22;5396;50.950;6.988;2023-08-06T02:02:57;14.70;99.90
10692;DHT22;5396;50.950;6.988;2023-08-06T02:05:22;14.70;99.90
10692;DHT22;5396;50.950;6.988;2023-08-06T02:07:48;14.70;99.90
10692;DHT22;5396;50.950;6.988;2023-08-06T02:10:13;14.70;99.90
10692;DHT22;5396;50.950;6.988;2023-08-06T02:12:39;14.70;99.90
10692;DHT22;5396;50.950;6.988;2023-08-06T02:15:05;14.60;99.90
10692;DHT22;5396;50.950;6.988;2023-08-06T02:17:30;14.60;99.90
10692;DHT22;5396;50.950;6.988;2023-08-06T02:19:56;14.60;99.90
10692;DHT22;5396;50.950;6.988;2023-08-06T02:22:21;14.60;99.90
10692;DHT22;5396;50.950;6.988;2023-08-06T02:24:49;14.60;99.90
10692;DHT22;5396;50.950;6.988;2023-08-06T02:27:14;14.60;99.90
10692;DHT22;5396;50.950;6.988;2023-08-06T02:29:40;14.60;99.90
10692;DHT22;5396;50.950;6.988;2023-08-06T02:32:07;14.60;99.90
10692;DHT22;5396;50.950;6.988;2023-08-06T02:34:32;14.60;99.90
10692;DHT22;5396;50.950;6.988;2023-08-06T02:36:58;14.70;99.90
10692;DHT22;5396;50.950;6.988;2023-08-06T02:39:23;14.60;99.90
10692;DHT22;5396;50.950;6.988;2023-08-06T02:41:49;14.70;99.90
10692;DHT22;5396;50.950;6.988;2023-08-06T02:44:15;14.70;99.90
10692;DHT22;5396;50.950;6.988;2023-08-06T02:46:40;14.70;99.90
10692;DHT22;5396;50.950;6.988;2023-08-06T02:49:06;14.70;99.90
10692;DHT22;5396;50.950;6.988;2023-08-06T02:51:32;14.80;99.90
10692;DHT22;5396;50.950;6.988;2023-08-06T02:53:57;14.80;99.90
10692;DHT22;5396;50.950;6.988;2023-08-06T02:56:23;14.80;99.90
10692;DHT22;5396;50.950;6.988;2023-08-06T02:58:48;14.80;99.90
10692;DHT22;5396;50.950;6.988;2023-08-06T03:01:14;14.80;99.90
10692;DHT22;5396;50.950;6.988;2023-08-06T03:03:39;14.80;99.90
10692;DHT22;5396;50.950;6.988;2023-08-06T03:06:05;14.80;99.90
10692;DHT22;5396;50.950;6.988;2023-08-06T03:08:31;14.80;99.90
10692;DHT22;5396;50.950;6.988;2023-08-06T03:10:56;14.80;99.90
10692;DHT22;5396;50.950;6.988;2023-08-06T03:13:22;14.80;99.90
10692;DHT22;5396;50.950;6.988;2023-08-06T03:15:55;14.80;99.90
10692;DHT22;5396;50.950;6.988;2023-08-06T03:18:21;14.80;99.90
10692;DHT22;5396;50.950;6.988;2023-08-06T03:20:47;14.80;99.90
10692;DHT22;5396;50.950;6.988;2023-08-06T03:23:12;14.80;99.90
10692;DHT22;5396;50.950;6.988;2023-08-06T03:25:38;14.80;99.90
10692;DHT22;5396;50.950;6.988;2023-08-06T03:28:04;14.80;99.90
10692;DHT22;5396;50.950;6.988;2023-08-06T03:30:29;14.90;99.90
10692;DHT22;5396;50.950;6.988;2023-08-06T03:32:55;14.90;99.90
10692;DHT22;5396;50.950;6.988;2023-08-06T03:35:20;14.90;99.90
10692;DHT22;5396;50.950;6.988;2023-08-06T03:37:46;14.90;99.90
10692;DHT22;5396;50.950;6.988;2023-08-06T03:40:12;14.80;99.90
10692;DHT22;5396;50.950;6.988;2023-08-06T03:42:39;14.80;99.90
10692;DHT22;5396;50.950;6.988;2023-08-06T03:45:05;14.80;99.90
10692;DHT22;5396;50.950;6.988;2023-08-06T03:47:30;14.80;99.90
10692;DHT22;5396;50.950;6.988;2023-08-06T03:49:56;14.80;99.90
10692;DHT22;5396;50.950;6.988;2023-08-06T03:52:22;14.80;99.90
10692;DHT22;5396;50.950;6.988;2023-08-06T03:54:47;14.80;99.90
10692;DHT22;5396;50.950;6.988;2023-08-06T03:57:13;14.70;99.90
10692;DHT22;5396;50.950;6.988;2023-08-06T03:59:38;14.70;99.90
10692;DHT22;5396;50.950;6.988;2023-08-06T04:02:04;14.70;99.90
10692;DHT22;5396;50.950;6.988;2023-08-06T04:04:29;14.70;99.90
10692;DHT22;5396;50.950;6.988;2023-08-06T04:06:55;14.60;99.90
10692;DHT22;5396;50.950;6.988;2023-08-06T04:09:21;14.60;99.90
10692;DHT22;5396;50.950;6.988;2023-08-06T04:11:46;14.60;99.90
10692;DHT22;5396;50.950;6.988;2023-08-06T04:14:12;14.60;99.90
10692;DHT22;5396;50.950;6.988;2023-08-06T04:16:37;14.60;99.90
10692;DHT22;5396;50.950;6.988;2023-08-06T04:19:03;14.60;99.90
10692;DHT22;5396;50.950;6.988;2023-08-06T04:21:28;14.60;99.90
10692;DHT22;5396;50.950;6.988;2023-08-06T04:23:54;14.60;99.90
10692;DHT22;5396;50.950;6.988;2023-08-06T04:26:19;14.60;99.90
10692;DHT22;5396;50.950;6.988;2023-08-06T04:28:45;14.60;99.90
10692;DHT22;5396;50.950;6.988;2023-08-06T04:31:10;14.60;99.90
10692;DHT22;5396;50.950;6.988;2023-08-06T04:33:36;14.60;99.90
10692;DHT22;5396;50.950;6.988;2023-08-06T04:36:02;14.60;99.90
10692;DHT22;5396;50.950;6.988;2023-08-06T04:38:27;14.60;99.90
10692;DHT22;5396;50.950;6.988;2023-08-06T04:40:53;14.60;99.90
10692;DHT22;5396;50.950;6.988;2023-08-06T04:43:19;14.60;99.90
10692;DHT22;5396;50.950;6.988;2023-08-06T04:45:50;14.60;99.90
10692;DHT22;5396;50.950;6.988;2023-08-06T04:48:16;14.60;99.90
10692;DHT22;5396;50.950;6.988;2023-08-06T04:50:48;14.60;99.90
10692;DHT22;5396;50.950;6.988;2023-08-06T04:53:15;14.70;99.90
10692;DHT22;5396;50.950;6.988;2023-08-06T04:55:41;14.70;99.90
10692;DHT22;5396;50.950;6.988;2023-08-06T04:58:07;14.70;99.90
10692;DHT22;5396;50.950;6.988;2023-08-06T05:00:33;14.80;99.90
10692;DHT22;5396;50.950;6.988;2023-08-06T05:03:02;14.90;99.90
10692;DHT22;5396;50.950;6.988;2023-08-06T05:05:29;14.90;99.90
10692;DHT22;5396;50.950;6.988;2023-08-06T05:07:57;14.90;99.90
10692;DHT22;5396;50.950;6.988;2023-08-06T05:10:26;14.90;99.90
10692;DHT22;5396;50.950;6.988;2023-08-06T05:12:53;14.90;99.90
10692;DHT22;5396;50.950;6.988;2023-08-06T05:15:18;14.90;99.90
10692;DHT22;5396;50.950;6.988;2023-08-06T05:17:44;14.90;99.90
10692;DHT22;5396;50.950;6.988;2023-08-06T05:20:10;14.90;99.90
10692;DHT22;5396;50.950;6.988;2023-08-06T05:22:36;14.90;99.90
10692;DHT22;5396;50.950;6.988;2023-08-06T05:25:01;14.90;99.90
10692;DHT22;5396;50.950;6.988;2023-08-06T05:27:27;14.90;99.90
10692;DHT22;5396;50.950;6.988;2023-08-06T05:29:55;14.90;99.90
10692;DHT22;5396;50.950;6.988;2023-08-06T05:32:21;14.90;99.90
10692;DHT22;5396;50.950;6.988;2023-08-06T05:34:47;15.00;99.90
10692;DHT22;5396;50.950;6.988;2023-08-06T05:37:13;15.00;99.90
10692;DHT22;5396;50.950;6.988;2023-08-06T05:39:38;15.10;99.90
10692;DHT22;5396;50.950;6.988;2023-08-06T05:42:04;15.20;99.90
10692;DHT22;5396;50.950;6.988;2023-08-06T05:44:30;15.30;99.90
10692;DHT22;5396;50.950;6.988;2023-08-06T05:46:56;15.40;99.90
10692;DHT22;5396;50.950;6.988;2023-08-06T05:49:21;15.50;99.90
10692;DHT22;5396;50.950;6.988;2023-08-06T05:51:47;15.60;99.90
10692;DHT22;5396;50.950;6.988;2023-08-06T05:54:13;15.70;99.90
10692;DHT22;5396;50.950;6.988;2023-08-06T05:56:39;15.80;99.90
10692;DHT22;5396;50.950;6.988;2023-08-06T05:59:04;15.80;99.90
10692;DHT22;5396;50.950;6.988;2023-08-06T06:01:30;15.80;99.90
10692;DHT22;5396;50.950;6.988;2023-08-06T06:03:57;15.80;99.90
10692;DHT22;5396;50.950;6.988;2023-08-06T06:06:23;15.80;99.90
10692;DHT22;5396;50.950;6.988;2023-08-06T06:08:48;15.80;99.90
10692;DHT22;5396;50.950;6.988;2023-08-06T06:11:14;15.90;99.90
10692;DHT22;5396;50.950;6.988;2023-08-06T06:13:39;15.90;99.90
10692;DHT22;5396;50.950;6.988;2023-08-06T06:16:05;16.00;99.90
10692;DHT22;5396;50.950;6.988;2023-08-06T06:18:31;16.00;99.90
10692;DHT22;5396;50.950;6.988;2023-08-06T06:20:56;16.00;99.90
10692;DHT22;5396;50.950;6.988;2023-08-06T06:23:22;16.00;99.90
10692;DHT22;5396;50.950;6.988;2023-08-06T06:25:51;16.10;99.90
10692;DHT22;5396;50.950;6.988;2023-08-06T06:28:19;16.20;99.90
10692;DHT22;5396;50.950;6.988;2023-08-06T06:30:45;16.30;99.90
10692;DHT22;5396;50.950;6.988;2023-08-06T06:33:11;16.30;99.90
10692;DHT22;5396;50.950;6.988;2023-08-06T06:35:37;16.20;99.90
10692;DHT22;5396;50.950;6.988;2023-08-06T06:38:02;16.20;99.90
10692;DHT22;5396;50.950;6.988;2023-08-06T06:40:28;16.20;99.90
10692;DHT22;5396;50.950;6.988;2023-08-06T06:42:53;16.10;99.90
10692;DHT22;5396;50.950;6.988;2023-08-06T06:45:19;16.00;99.90
10692;DHT22;5396;50.950;6.988;2023-08-06T06:47:45;15.90;99.90
10692;DHT22;5396;50.950;6.988;2023-08-06T06:50:10;15.70;99.90
10692;DHT22;5396;50.950;6.988;2023-08-06T06:52:36;15.50;99.90
10692;DHT22;5396;50.950;6.988;2023-08-06T06:55:02;15.40;99.90
10692;DHT22;5396;50.950;6.988;2023-08-06T06:57:28;15.40;99.90
10692;DHT22;5396;50.950;6.988;2023-08-06T06:59:53;15.40;99.90
10692;DHT22;5396;50.950;6.988;2023-08-06T07:02:19;15.40;99.90
10692;DHT22;5396;50.950;6.988;2023-08-06T07:04:45;15.30;99.90
10692;DHT22;5396;50.950;6.988;2023-08-06T07:07:10;15.30;99.90
10692;DHT22;5396;50.950;6.988;2023-08-06T07:09:36;15.20;99.90
10692;DHT22;5396;50.950;6.988;2023-08-06T07:12:01;15.20;99.90
10692;DHT22;5396;50.950;6.988;2023-08-06T07:14:28;15.20;99.90
10692;DHT22;5396;50.950;6.988;2023-08-06T07:16:54;15.30;99.90
10692;DHT22;5396;50.950;6.988;2023-08-06T07:19:27;15.30;99.90
10692;DHT22;5396;50.950;6.988;2023-08-06T07:21:59;15.30;99.90
10692;DHT22;5396;50.950;6.988;2023-08-06T07:24:25;15.30;99.90
10692;DHT22;5396;50.950;6.988;2023-08-06T07:26:50;15.30;99.90
10692;DHT22;5396;50.950;6.988;2023-08-06T07:29:17;15.30;99.90
10692;DHT22;5396;50.950;6.988;2023-08-06T07:31:46;15.30;99.90
10692;DHT22;5396;50.950;6.988;2023-08-06T07:34:12;15.30;99.90
10692;DHT22;5396;50.950;6.988;2023-08-06T07:36:38;15.30;99.90
10692;DHT22;5396;50.950;6.988;2023-08-06T07:39:03;15.20;99.90
10692;DHT22;5396;50.950;6.988;2023-08-06T07:41:31;15.30;99.90
10692;DHT22;5396;50.950;6.988;2023-08-06T07:43:57;15.30;99.90
10692;DHT22;5396;50.950;6.988;2023-08-06T07:46:22;15.30;99.90
10692;DHT22;5396;50.950;6.988;2023-08-06T07:48:48;15.30;99.90
10692;DHT22;5396;50.950;6.988;2023-08-06T07:51:13;15.30;99.90
10692;DHT22;5396;50.950;6.988;2023-08-06T07:53:41;15.40;99.90
10692;DHT22;5396;50.950;6.988;2023-08-06T07:56:07;15.60;99.90
10692;DHT22;5396;50.950;6.988;2023-08-06T07:58:33;15.60;99.90
10692;DHT22;5396;50.950;6.988;2023-08-06T08:00:59;15.70;99.90
10692;DHT22;5396;50.950;6.988;2023-08-06T08:03:24;15.80;99.90
10692;DHT22;5396;50.950;6.988;2023-08-06T08:05:54;15.90;99.90
10692;DHT22;5396;50.950;6.988;2023-08-06T08:08:21;16.00;99.90
10692;DHT22;5396;50.950;6.988;2023-08-06T08:10:47;16.20;99.90
10692;DHT22;5396;50.950;6.988;2023-08-06T08:13:13;16.20;99.90
10692;DHT22;5396;50.950;6.988;2023-08-06T08:15:38;16.20;99.90
10692;DHT22;5396;50.950;6.988;2023-08-06T08:18:04;16.20;99.90
10692;DHT22;5396;50.950;6.988;2023-08-06T08:20:30;16.20;99.90
10692;DHT22;5396;50.950;6.988;2023-08-06T08:23:00;16.20;99.90
10692;DHT22;5396;50.950;6.988;2023-08-06T08:25:26;16.20;99.90
10692;DHT22;5396;50.950;6.988;2023-08-06T08:27:53;16.20;99.90
10692;DHT22;5396;50.950;6.988;2023-08-06T08:30:19;16.20;99.90
10692;DHT22;5396;50.950;6.988;2023-08-06T08:32:44;16.30;99.90
10692;DHT22;5396;50.950;6.988;2023-08-06T08:35:10;16.40;99.90
10692;DHT22;5396;50.950;6.988;2023-08-06T08:37:38;16.30;99.90
10692;DHT22;5396;50.950;6.988;2023-08-06T08:40:05;16.30;99.90
10692;DHT22;5396;50.950;6.988;2023-08-06T08:42:31;16.30;99.90
10692;DHT22;5396;50.950;6.988;2023-08-06T08:44:56;16.30;99.90
10692;DHT22;5396;50.950;6.988;2023-08-06T08:47:22;16.40;99.90
10692;DHT22;5396;50.950;6.988;2023-08-06T08:49:53;16.40;99.90
10692;DHT22;5396;50.950;6.988;2023-08-06T08:52:20;16.40;99.90
10692;DHT22;5396;50.950;6.988;2023-08-06T08:54:46;16.30;99.90
10692;DHT22;5396;50.950;6.988;2023-08-06T08:57:17;16.30;99.90
10692;DHT22;5396;50.950;6.988;2023-08-06T08:59:42;16.40;99.90
10692;DHT22;5396;50.950;6.988;2023-08-06T09:02:13;16.50;99.90
10692;DHT22;5396;50.950;6.988;2023-08-06T09:04:40;16.50;99.90
10692;DHT22;5396;50.950;6.988;2023-08-06T09:07:08;16.50;99.90
10692;DHT22;5396;50.950;6.988;2023-08-06T09:09:35;16.60;99.90
10692;DHT22;5396;50.950;6.988;2023-08-06T09:12:09;16.60;99.90
10692;DHT22;5396;50.950;6.988;2023-08-06T09:14:35;16.60;99.90
10692;DHT22;5396;50.950;6.988;2023-08-06T09:17:01;16.60;99.90
10692;DHT22;5396;50.950;6.988;2023-08-06T09:19:27;16.50;99.90
10692;DHT22;5396;50.950;6.988;2023-08-06T09:21:53;16.30;99.90
10692;DHT22;5396;50.950;6.988;2023-08-06T09:24:23;16.20;99.90
10692;DHT22;5396;50.950;6.988;2023-08-06T09:26:49;16.10;99.90
10692;DHT22;5396;50.950;6.988;2023-08-06T09:29:15;16.10;99.90
10692;DHT22;5396;50.950;6.988;2023-08-06T09:31:45;16.00;99.90
10692;DHT22;5396;50.950;6.988;2023-08-06T09:34:15;15.90;99.90
10692;DHT22;5396;50.950;6.988;2023-08-06T09:36:42;15.80;99.90
10692;DHT22;5396;50.950;6.988;2023-08-06T09:42:15;15.60;99.90
10692;DHT22;5396;50.950;6.988;2023-08-06T09:44:40;15.60;99.90
10692;DHT22;5396;50.950;6.988;2023-08-06T09:47:06;15.60;99.90
10692;DHT22;5396;50.950;6.988;2023-08-06T09:51:58;15.60;99.90
10692;DHT22;5396;50.950;6.988;2023-08-06T09:54:26;15.60;99.90
10692;DHT22;5396;50.950;6.988;2023-08-06T09:56:55;15.70;99.90
10692;DHT22;5396;50.950;6.988;2023-08-06T09:59:24;15.80;99.90
10692;DHT22;5396;50.950;6.988;2023-08-06T10:01:54;15.80;99.90
10692;DHT22;5396;50.950;6.988;2023-08-06T10:04:23;15.80;99.90
10692;DHT22;5396;50.950;6.988;2023-08-06T10:06:49;15.90;99.90
10692;DHT22;5396;50.950;6.988;2023-08-06T10:09:14;15.90;99.90
10692;DHT22;5396;50.950;6.988;2023-08-06T10:11:42;16.00;99.90
10692;DHT22;5396;50.950;6.988;2023-08-06T10:14:12;16.00;99.90
10692;DHT22;5396;50.950;6.988;2023-08-06T10:16:42;15.90;99.90
10692;DHT22;5396;50.950;6.988;2023-08-06T10:19:10;15.60;99.90
10692;DHT22;5396;50.950;6.988;2023-08-06T10:29:35;15.40;99.90
10692;DHT22;5396;50.950;6.988;2023-08-06T10:32:04;14.90;99.90
10692;DHT22;5396;50.950;6.988;2023-08-06T10:34:53;14.90;99.90
10692;DHT22;5396;50.950;6.988;2023-08-06T10:37:19;14.70;99.90
10692;DHT22;5396;50.950;6.988;2023-08-06T10:39:51;14.70;99.90
10692;DHT22;5396;50.950;6.988;2023-08-06T10:42:28;14.60;99.90
10692;DHT22;5396;50.950;6.988;2023-08-06T10:45:19;14.60;99.90
10692;DHT22;5396;50.950;6.988;2023-08-06T10:47:45;14.50;99.90
10692;DHT22;5396;50.950;6.988;2023-08-06T10:50:13;14.50;99.90
10692;DHT22;5396;50.950;6.988;2023-08-06T10:52:40;14.40;99.90
10692;DHT22;5396;50.950;6.988;2023-08-06T10:55:06;14.40;99.90
10692;DHT22;5396;50.950;6.988;2023-08-06T10:57:31;14.30;99.90
10692;DHT22;5396;50.950;6.988;2023-08-06T10:59:57;14.20;99.90
10692;DHT22;5396;50.950;6.988;2023-08-06T11:02:23;14.10;99.90
10692;DHT22;5396;50.950;6.988;2023-08-06T11:04:49;14.10;99.90
10692;DHT22;5396;50.950;6.988;2023-08-06T11:07:14;14.00;99.90
10692;DHT22;5396;50.950;6.988;2023-08-06T11:09:40;14.00;99.90
10692;DHT22;5396;50.950;6.988;2023-08-06T11:12:11;14.00;99.90
10692;DHT22;5396;50.950;6.988;2023-08-06T11:14:37;14.00;99.90
10692;DHT22;5396;50.950;6.988;2023-08-06T11:17:06;13.90;99.90
10692;DHT22;5396;50.950;6.988;2023-08-06T11:19:32;13.90;99.90
10692;DHT22;5396;50.950;6.988;2023-08-06T11:21:57;13.80;99.90
10692;DHT22;5396;50.950;6.988;2023-08-06T11:24:24;13.90;99.90
10692;DHT22;5396;50.950;6.988;2023-08-06T11:26:49;13.90;99.90
10692;DHT22;5396;50.950;6.988;2023-08-06T11:29:16;13.90;99.90
10692;DHT22;5396;50.950;6.988;2023-08-06T11:31:41;13.90;99.90
10692;DHT22;5396;50.950;6.988;2023-08-06T11:34:07;13.90;99.90
10692;DHT22;5396;50.950;6.988;2023-08-06T11:36:36;14.00;99.90
10692;DHT22;5396;50.950;6.988;2023-08-06T11:39:03;14.10;99.90
10692;DHT22;5396;50.950;6.988;2023-08-06T11:41:31;14.10;99.90
10692;DHT22;5396;50.950;6.988;2023-08-06T11:43:57;14.10;99.90
10692;DHT22;5396;50.950;6.988;2023-08-06T11:46:22;14.20;99.90
10692;DHT22;5396;50.950;6.988;2023-08-06T11:48:54;14.20;99.90
10692;DHT22;5396;50.950;6.988;2023-08-06T11:51:24;14.30;99.90
10692;DHT22;5396;50.950;6.988;2023-08-06T11:53:57;14.40;99.90
10692;DHT22;5396;50.950;6.988;2023-08-06T11:56:25;14.50;99.90
10692;DHT22;5396;50.950;6.988;2023-08-06T11:58:54;14.50;99.90
10692;DHT22;5396;50.950;6.988;2023-08-06T12:01:20;14.50;99.90
10692;DHT22;5396;50.950;6.988;2023-08-06T12:03:46;14.50;99.90
10692;DHT22;5396;50.950;6.988;2023-08-06T12:06:12;14.50;99.90
10692;DHT22;5396;50.950;6.988;2023-08-06T12:08:37;14.60;99.90
10692;DHT22;5396;50.950;6.988;2023-08-06T12:11:04;14.70;99.90
10692;DHT22;5396;50.950;6.988;2023-08-06T12:13:30;14.80;99.90
10692;DHT22;5396;50.950;6.988;2023-08-06T12:15:56;14.80;99.90
10692;DHT22;5396;50.950;6.988;2023-08-06T12:18:23;14.80;99.90
10692;DHT22;5396;50.950;6.988;2023-08-06T12:20:48;14.90;99.90
10692;DHT22;5396;50.950;6.988;2023-08-06T12:23:14;15.00;99.90
10692;DHT22;5396;50.950;6.988;2023-08-06T12:25:41;15.10;99.90
10692;DHT22;5396;50.950;6.988;2023-08-06T12:28:07;15.10;99.90
10692;DHT22;5396;50.950;6.988;2023-08-06T12:30:33;15.20;99.90
10692;DHT22;5396;50.950;6.988;2023-08-06T12:32:59;15.20;99.90
10692;DHT22;5396;50.950;6.988;2023-08-06T12:35:25;15.20;99.90
10692;DHT22;5396;50.950;6.988;2023-08-06T12:37:51;15.30;99.90
10692;DHT22;5396;50.950;6.988;2023-08-06T12:40:20;15.20;99.90
10692;DHT22;5396;50.950;6.988;2023-08-06T12:42:45;15.10;99.90
10692;DHT22;5396;50.950;6.988;2023-08-06T12:45:11;14.90;99.90
10692;DHT22;5396;50.950;6.988;2023-08-06T12:47:37;14.80;99.90
10692;DHT22;5396;50.950;6.988;2023-08-06T12:50:03;14.70;99.90
10692;DHT22;5396;50.950;6.988;2023-08-06T12:52:29;14.70;99.90
10692;DHT22;5396;50.950;6.988;2023-08-06T12:54:55;14.70;99.90
10692;DHT22;5396;50.950;6.988;2023-08-06T12:57:20;14.70;99.90
10692;DHT22;5396;50.950;6.988;2023-08-06T12:59:46;14.70;99.90
10692;DHT22;5396;50.950;6.988;2023-08-06T13:02:11;14.80;99.90
10692;DHT22;5396;50.950;6.988;2023-08-06T13:04:37;14.80;99.90
10692;DHT22;5396;50.950;6.988;2023-08-06T13:07:03;14.90;99.90
10692;DHT22;5396;50.950;6.988;2023-08-06T13:09:28;15.00;99.90
10692;DHT22;5396;50.950;6.988;2023-08-06T13:11:55;15.10;99.90
10692;DHT22;5396;50.950;6.988;2023-08-06T13:14:20;15.10;99.90
10692;DHT22;5396;50.950;6.988;2023-08-06T13:16:46;15.20;99.90
10692;DHT22;5396;50.950;6.988;2023-08-06T13:19:12;15.20;99.90
10692;DHT22;5396;50.950;6.988;2023-08-06T13:24:06;15.40;99.90
10692;DHT22;5396;50.950;6.988;2023-08-06T13:26:31;15.40;99.90
10692;DHT22;5396;50.950;6.988;2023-08-06T13:28:58;15.50;99.90
10692;DHT22;5396;50.950;6.988;2023-08-06T13:31:24;15.50;99.90
10692;DHT22;5396;50.950;6.988;2023-08-06T13:33:50;15.50;99.90
10692;DHT22;5396;50.950;6.988;2023-08-06T13:36:16;15.50;99.90
10692;DHT22;5396;50.950;6.988;2023-08-06T13:38:42;15.50;99.90
10692;DHT22;5396;50.950;6.988;2023-08-06T13:41:08;15.50;99.90
10692;DHT22;5396;50.950;6.988;2023-08-06T13:43:33;15.20;99.90
10692;DHT22;5396;50.950;6.988;2023-08-06T13:45:59;15.10;99.90
10692;DHT22;5396;50.950;6.988;2023-08-06T13:48:24;14.90;99.90
10692;DHT22;5396;50.950;6.988;2023-08-06T13:50:50;14.80;99.90
10692;DHT22;5396;50.950;6.988;2023-08-06T13:53:16;14.80;99.90
10692;DHT22;5396;50.950;6.988;2023-08-06T13:55:41;14.80;99.90
10692;DHT22;5396;50.950;6.988;2023-08-06T13:58:07;14.80;99.90
10692;DHT22;5396;50.950;6.988;2023-08-06T14:00:35;14.80;99.90
10692;DHT22;5396;50.950;6.988;2023-08-06T14:03:01;14.80;99.90
10692;DHT22;5396;50.950;6.988;2023-08-06T14:05:26;14.90;99.90
10692;DHT22;5396;50.950;6.988;2023-08-06T14:07:52;15.00;99.90
10692;DHT22;5396;50.950;6.988;2023-08-06T14:10:18;15.10;99.90
10692;DHT22;5396;50.950;6.988;2023-08-06T14:12:43;15.20;99.90
10692;DHT22;5396;50.950;6.988;2023-08-06T14:15:10;15.40;99.90
10692;DHT22;5396;50.950;6.988;2023-08-06T14:17:35;15.50;99.90
10692;DHT22;5396;50.950;6.988;2023-08-06T14:20:01;15.60;99.90
10692;DHT22;5396;50.950;6.988;2023-08-06T14:22:28;15.60;99.90
10692;DHT22;5396;50.950;6.988;2023-08-06T14:24:55;15.60;99.90
10692;DHT22;5396;50.950;6.988;2023-08-06T14:27:21;15.60;99.90
10692;DHT22;5396;50.950;6.988;2023-08-06T14:29:47;15.60;99.90
10692;DHT22;5396;50.950;6.988;2023-08-06T14:32:12;15.50;99.90
10692;DHT22;5396;50.950;6.988;2023-08-06T14:34:38;15.50;99.90
10692;DHT22;5396;50.950;6.988;2023-08-06T14:37:04;15.50;99.90
10692;DHT22;5396;50.950;6.988;2023-08-06T14:39:30;15.40;99.90
10692;DHT22;5396;50.950;6.988;2023-08-06T14:41:55;15.30;99.90
10692;DHT22;5396;50.950;6.988;2023-08-06T14:44:21;15.20;99.90
10692;DHT22;5396;50.950;6.988;2023-08-06T14:46:46;15.00;99.90
10692;DHT22;5396;50.950;6.988;2023-08-06T14:49:12;15.00;99.90
10692;DHT22;5396;50.950;6.988;2023-08-06T14:51:37;15.00;99.90
10692;DHT22;5396;50.950;6.988;2023-08-06T14:54:04;15.00;99.90
10692;DHT22;5396;50.950;6.988;2023-08-06T14:56:29;15.10;99.90
10692;DHT22;5396;50.950;6.988;2023-08-06T14:58:55;15.10;99.90
10692;DHT22;5396;50.950;6.988;2023-08-06T15:01:20;15.20;99.90
10692;DHT22;5396;50.950;6.988;2023-08-06T15:03:46;15.20;99.90
10692;DHT22;5396;50.950;6.988;2023-08-06T15:06:12;15.40;99.90
10692;DHT22;5396;50.950;6.988;2023-08-06T15:08:37;15.50;99.90
10692;DHT22;5396;50.950;6.988;2023-08-06T15:11:03;15.50;99.90
10692;DHT22;5396;50.950;6.988;2023-08-06T15:13:29;15.60;99.90
10692;DHT22;5396;50.950;6.988;2023-08-06T15:15:55;15.60;99.90
10692;DHT22;5396;50.950;6.988;2023-08-06T15:18:21;15.60;99.90
10692;DHT22;5396;50.950;6.988;2023-08-06T15:20:46;15.70;99.90
10692;DHT22;5396;50.950;6.988;2023-08-06T15:23:12;15.70;99.90
10692;DHT22;5396;50.950;6.988;2023-08-06T15:25:38;15.70;99.90
10692;DHT22;5396;50.950;6.988;2023-08-06T15:28:03;15.70;99.90
10692;DHT22;5396;50.950;6.988;2023-08-06T15:30:29;15.60;99.90
10692;DHT22;5396;50.950;6.988;2023-08-06T15:32:54;15.50;99.90
10692;DHT22;5396;50.950;6.988;2023-08-06T15:35:21;15.40;99.90
10692;DHT22;5396;50.950;6.988;2023-08-06T15:37:46;15.30;99.90
10692;DHT22;5396;50.950;6.988;2023-08-06T15:40:12;15.20;99.90
10692;DHT22;5396;50.950;6.988;2023-08-06T15:42:37;15.10;99.90
10692;DHT22;5396;50.950;6.988;2023-08-06T15:45:03;15.10;99.90
10692;DHT22;5396;50.950;6.988;2023-08-06T15:47:29;15.10;99.90
10692;DHT22;5396;50.950;6.988;2023-08-06T15:49:55;15.10;99.90
10692;DHT22;5396;50.950;6.988;2023-08-06T15:52:20;15.00;99.90
10692;DHT22;5396;50.950;6.988;2023-08-06T15:54:46;15.00;99.90
10692;DHT22;5396;50.950;6.988;2023-08-06T15:57:11;14.90;99.90
10692;DHT22;5396;50.950;6.988;2023-08-06T15:59:37;14.60;99.90